< < Back
Terminal Aerodrome Forecast


Current Version              Previous Versions:   1  2  3  4  5  6  7  8  9  

Terminal Aerodrome Forecast

093
FTUS42 KILM 271100
TAFILM
TAF
KILM 271120Z 2712/2812 34003KT P6SM BKN200
      TEMPO 2712/2713 5SM BR
     FM271300 01008KT P6SM BKN250
     FM271800 36010KT P6SM SCT040
     FM280200 02008KT P6SM SCT025 SCT200=

Latest METAR

652
SAUS70 KWBC 271100 RRC
MTRILM
METAR KILM 271053Z 02004KT 5SM BR CLR 01/M01 A3026 RMK AO2 SLP247
T00061006


USA.gov is the U.S. government's official web portal to all federal, state and local government web resources and services.